Time;durP1;ratioP1;P1;durP2;ratioP2;P2;SDS_P1;SDS_P2;PMS_P1;PMS_P2;Temp;Humidity;BMP_temperature;BMP_pressure;BME280_temperature;BME280_humidity;BME280_pressure;Samples;Min_cycle;Max_cycle;Signal;HPM_P1;HPM_P2
2022/12/01 00:01:18;;;;;;;23.10;9.45;;;10.50;64.40;;;;;;6096042;29;20369;-77
2022/12/01 00:04:18;;;;;;;21.05;8.73;;;10.50;64.60;;;;;;6080840;29;20479;-77
2022/12/01 00:07:19;;;;;;;24.98;9.40;;;10.40;64.50;;;;;;6093051;29;20042;-77
2022/12/01 00:10:27;;;;;;;19.42;8.70;;;10.40;64.60;;;;;;6090027;29;20103;-78
2022/12/01 00:13:28;;;;;;;16.83;7.27;;;10.40;64.70;;;;;;6089765;29;20052;-77
2022/12/01 00:16:29;;;;;;;25.45;8.30;;;10.40;64.70;;;;;;6095869;29;20143;-77
2022/12/01 00:19:30;;;;;;;19.27;7.78;;;10.30;64.70;;;;;;6087080;29;20047;-78
2022/12/01 00:22:32;;;;;;;21.15;8.93;;;10.40;64.90;;;;;;6096203;29;20663;-78
2022/12/01 00:25:32;;;;;;;18.55;8.35;;;10.30;64.90;;;;;;6095689;29;20060;-78
2022/12/01 00:28:33;;;;;;;18.58;7.47;;;10.30;64.90;;;;;;6104655;29;20273;-76
2022/12/01 00:31:34;;;;;;;17.55;7.75;;;10.30;65.00;;;;;;6084209;29;20181;-78
2022/12/01 00:34:36;;;;;;;19.48;8.15;;;10.20;65.10;;;;;;6100015;29;20058;-77
2022/12/01 00:37:37;;;;;;;17.95;7.22;;;10.20;65.20;;;;;;6096288;29;20126;-78
2022/12/01 00:40:38;;;;;;;17.30;8.07;;;10.20;65.40;;;;;;6104951;29;20059;-77
2022/12/01 00:43:39;;;;;;;15.52;6.90;;;10.10;65.30;;;;;;6089960;29;20431;-77
2022/12/01 00:46:41;;;;;;;18.63;7.78;;;10.10;65.40;;;;;;6095148;29;20479;-77
2022/12/01 00:49:44;;;;;;;15.30;7.95;;;10.10;65.50;;;;;;6092073;29;20087;-77
2022/12/01 00:52:44;;;;;;;25.65;8.10;;;10.10;65.50;;;;;;6094784;29;20120;-76
2022/12/01 00:55:45;;;;;;;20.17;8.57;;;10.10;65.50;;;;;;6105637;29;20057;-77
2022/12/01 00:58:46;;;;;;;20.63;9.02;;;10.10;65.50;;;;;;6088575;29;20414;-77
2022/12/01 01:01:48;;;;;;;28.13;12.13;;;10.00;66.30;;;;;;6101393;29;20044;-77
2022/12/01 01:04:49;;;;;;;14.80;6.22;;;10.00;65.50;;;;;;6080483;29;20036;-76
2022/12/01 01:07:50;;;;;;;29.92;11.75;;;10.00;65.60;;;;;;6092144;29;20040;-77
2022/12/01 01:10:50;;;;;;;28.55;7.88;;;10.00;65.60;;;;;;6097794;29;20378;-76
2022/12/01 01:13:51;;;;;;;19.60;9.07;;;9.90;65.50;;;;;;6088824;29;20040;-77
2022/12/01 01:16:53;;;;;;;24.60;9.20;;;9.90;65.40;;;;;;6097996;29;20534;-76
2022/12/01 01:19:54;;;;;;;17.58;8.82;;;10.00;65.50;;;;;;6092808;29;20056;-77
2022/12/01 01:22:55;;;;;;;21.08;8.05;;;10.00;65.50;;;;;;6080660;29;20405;-78
2022/12/01 01:26:14;;;;;;;22.63;7.55;;;10.00;65.40;;;;;;6088342;29;20059;-77
2022/12/01 01:29:15;;;;;;;17.42;7.40;;;10.00;65.30;;;;;;6084059;29;20041;-78
2022/12/01 01:32:15;;;;;;;17.60;6.82;;;10.00;65.10;;;;;;6108444;29;20502;-77
2022/12/01 01:35:16;;;;;;;15.40;6.00;;;10.00;64.90;;;;;;6092577;29;20108;-77
2022/12/01 01:38:18;;;;;;;11.23;5.45;;;10.00;64.90;;;;;;6090700;29;20063;-77
2022/12/01 01:41:21;;;;;;;12.77;6.65;;;10.10;64.80;;;;;;6094262;29;20044;-77
2022/12/01 01:44:49;;;;;;;14.95;5.65;;;10.10;64.80;;;;;;6074070;29;20108;-77
2022/12/01 01:47:52;;;;;;;15.27;5.85;;;10.10;64.60;;;;;;6080402;29;20036;-78
2022/12/01 01:50:53;;;;;;;18.83;6.30;;;10.10;64.50;;;;;;6097827;29;20055;-76
2022/12/01 01:53:59;;;;;;;14.20;5.68;;;10.10;64.30;;;;;;6089828;29;20242;-78
2022/12/01 01:57:01;;;;;;;12.77;6.10;;;10.10;64.20;;;;;;6095611;29;20466;-78
2022/12/01 02:00:09;;;;;;;10.25;4.78;;;10.10;64.10;;;;;;6085119;29;20044;-78
2022/12/01 02:03:19;;;;;;;10.63;5.28;;;10.10;64.00;;;;;;6100305;29;20063;-78
2022/12/01 02:06:22;;;;;;;14.98;6.07;;;10.10;64.00;;;;;;6093069;29;20135;-77
2022/12/01 02:09:23;;;;;;;13.63;6.68;;;10.10;64.00;;;;;;6102292;29;20044;-77
2022/12/01 02:12:51;;;;;;;16.77;6.97;;;10.10;63.80;;;;;;6104701;29;20414;-77
2022/12/01 02:16:18;;;;;;;15.40;6.22;;;10.10;63.70;;;;;;6089252;29;20458;-77
2022/12/01 02:19:54;;;;;;;9.85;4.68;;;10.10;64.40;;;;;;6088308;29;20489;-76
2022/12/01 02:23:13;;;;;;;12.02;5.47;;;10.10;63.70;;;;;;6104274;28;20051;-77
2022/12/01 02:26:38;;;;;;;9.13;4.40;;;10.10;63.70;;;;;;6074342;29;20470;-77
2022/12/01 02:29:59;;;;;;;9.13;3.83;;;10.10;63.60;;;;;;6093069;29;20040;-77
2022/12/01 02:33:21;;;;;;;14.80;4.90;;;10.10;63.50;;;;;;6093676;29;20347;-77
2022/12/01 02:36:49;;;;;;;5.93;3.45;;;10.10;63.50;;;;;;6096196;29;20789;-78
2022/12/01 02:39:54;;;;;;;8.32;4.35;;;10.00;63.30;;;;;;6087811;29;20043;-77
2022/12/01 02:43:38;;;;;;;8.30;3.65;;;10.00;63.20;;;;;;6110951;29;20505;-77
2022/12/01 02:47:03;;;;;;;6.68;3.53;;;10.00;63.30;;;;;;6111911;29;20104;-78
2022/12/01 02:50:06;;;;;;;16.25;4.07;;;10.00;63.10;;;;;;6090909;29;20530;-77
2022/12/01 02:53:09;;;;;;;8.43;4.35;;;10.00;63.00;;;;;;6104844;29;20097;-77
2022/12/01 02:56:13;;;;;;;16.60;4.45;;;10.10;63.00;;;;;;6110133;29;20046;-77
2022/12/01 02:59:14;;;;;;;13.55;4.32;;;10.10;63.00;;;;;;6103033;29;20370;-77
2022/12/01 03:02:18;;;;;;;17.80;6.05;;;10.10;62.90;;;;;;6105902;29;20055;-77
2022/12/01 03:05:33;;;;;;;22.02;6.00;;;10.10;62.80;;;;;;6096186;28;20047;-78
2022/12/01 03:08:44;;;;;;;7.85;4.43;;;10.10;62.80;;;;;;6089683;29;20043;-77
2022/12/01 03:12:04;;;;;;;18.67;5.18;;;10.10;62.70;;;;;;6094240;29;20040;-78
2022/12/01 03:15:27;;;;;;;9.27;5.13;;;10.20;62.70;;;;;;6083514;29;20048;-77
2022/12/01 03:18:42;;;;;;;15.15;4.45;;;10.20;62.60;;;;;;6077074;29;20040;-78
2022/12/01 03:21:51;;;;;;;9.30;4.20;;;10.20;62.50;;;;;;6080859;29;20043;-78
2022/12/01 03:24:53;;;;;;;;;;;10.20;62.40;;;;;;6091187;29;20040;-77
2022/12/01 03:27:57;;;;;;;15.85;4.30;;;10.30;62.30;;;;;;6098167;29;19930;-78
2022/12/01 03:31:03;;;;;;;7.53;3.72;;;10.30;62.10;;;;;;6088532;29;20063;-77
2022/12/01 03:34:13;;;;;;;6.65;4.18;;;10.30;62.00;;;;;;6095916;29;20084;-77
2022/12/01 03:37:20;;;;;;;16.83;4.25;;;10.30;62.00;;;;;;6075614;29;20058;-77
2022/12/01 03:40:26;;;;;;;9.75;3.53;;;10.40;61.90;;;;;;6101231;29;20059;-77
2022/12/01 03:43:35;;;;;;;6.90;3.15;;;10.40;61.80;;;;;;6094554;29;20055;-77
2022/12/01 03:46:58;;;;;;;8.23;3.65;;;10.40;61.80;;;;;;6091784;29;20062;-77
2022/12/01 03:49:59;;;;;;;6.47;3.13;;;10.30;61.70;;;;;;6088063;29;20458;-77
2022/12/01 03:53:18;;;;;;;6.10;3.47;;;10.30;61.80;;;;;;6097910;29;20044;-77
2022/12/01 03:56:23;;;;;;;6.43;3.35;;;10.30;61.80;;;;;;6077802;29;20043;-77
2022/12/01 03:59:26;;;;;;;8.10;4.18;;;10.30;61.50;;;;;;6096011;29;20052;-77
2022/12/01 04:02:27;;;;;;;8.15;3.58;;;10.30;61.20;;;;;;6080843;29;20113;-78
2022/12/01 04:05:29;;;;;;;11.32;4.53;;;10.20;61.20;;;;;;6093193;29;20481;-78
2022/12/01 04:08:32;;;;;;;8.32;4.07;;;10.20;61.40;;;;;;6093540;29;20450;-77
2022/12/01 04:14:53;;;;;;;7.63;3.38;;;10.20;61.40;;;;;;6084699;29;20036;-76
2022/12/01 04:17:54;;;;;;;21.65;6.25;;;10.30;61.20;;;;;;6102069;29;20100;-77
2022/12/01 04:20:54;;;;;;;10.50;5.15;;;10.20;61.20;;;;;;6089066;29;20032;-77
2022/12/01 04:24:01;;;;;;;9.95;4.68;;;10.30;61.40;;;;;;6096874;29;20115;-78
2022/12/01 04:27:02;;;;;;;13.13;5.13;;;10.20;61.60;;;;;;6072730;29;20032;-78
2022/12/01 04:30:07;;;;;;;11.63;4.97;;;10.20;61.90;;;;;;6080747;29;20449;-77
2022/12/01 04:33:08;;;;;;;8.80;3.95;;;10.20;62.10;;;;;;6106948;29;20060;-77
2022/12/01 04:36:09;;;;;;;8.15;4.07;;;10.30;62.30;;;;;;6075114;29;20498;-77
2022/12/01 04:39:10;;;;;;;8.25;4.18;;;10.20;62.10;;;;;;6100816;29;20040;-77
2022/12/01 04:42:11;;;;;;;8.05;4.38;;;10.20;62.10;;;;;;6086195;29;20470;-77
2022/12/01 04:45:12;;;;;;;6.80;4.00;;;10.10;62.10;;;;;;6099455;29;20048;-77
2022/12/01 04:48:13;;;;;;;11.27;4.78;;;10.10;62.20;;;;;;6088037;29;20059;-77
2022/12/01 04:51:14;;;;;;;7.57;3.85;;;10.10;62.30;;;;;;6077109;29;20044;-78
2022/12/01 04:54:15;;;;;;;10.43;4.53;;;10.00;62.40;;;;;;6087602;29;20044;-77
2022/12/01 04:57:16;;;;;;;8.90;4.57;;;10.00;62.50;;;;;;6088533;29;20044;-77
2022/12/01 05:00:17;;;;;;;10.45;4.32;;;10.00;62.50;;;;;;6087042;29;20076;-77
2022/12/01 05:03:18;;;;;;;11.88;6.65;;;10.00;62.60;;;;;;6099510;29;20524;-76
2022/12/01 05:06:22;;;;;;;12.50;4.47;;;9.90;62.40;;;;;;6084723;29;20108;-78
2022/12/01 05:09:22;;;;;;;6.43;3.78;;;9.90;62.40;;;;;;6083553;29;20040;-77
2022/12/01 05:12:23;;;;;;;12.75;5.15;;;9.80;62.30;;;;;;6065070;29;20061;-77
2022/12/01 05:15:24;;;;;;;9.75;4.47;;;9.80;62.30;;;;;;6078719;29;20048;-77
2022/12/01 05:18:25;;;;;;;10.38;4.82;;;9.80;62.30;;;;;;6087288;29;20039;-77
2022/12/01 05:21:26;;;;;;;12.02;5.47;;;9.70;62.40;;;;;;6083157;29;20115;-77
2022/12/01 05:24:27;;;;;;;12.55;4.75;;;9.70;62.60;;;;;;6074853;29;20127;-76
2022/12/01 05:27:28;;;;;;;10.30;5.57;;;9.60;62.90;;;;;;6103858;29;20486;-79
2022/12/01 05:30:29;;;;;;;10.25;4.55;;;9.60;64.10;;;;;;6088463;29;20127;-76
2022/12/01 05:33:30;;;;;;;8.10;4.40;;;9.60;63.30;;;;;;6092573;29;20051;-77
2022/12/01 05:36:31;;;;;;;17.63;4.68;;;9.60;63.60;;;;;;6075765;29;20474;-77
2022/12/01 05:39:32;;;;;;;11.30;4.32;;;9.60;63.80;;;;;;6076711;29;20036;-77
2022/12/01 05:42:34;;;;;;;7.80;4.18;;;9.60;63.70;;;;;;6091189;29;20503;-78
2022/12/01 05:45:35;;;;;;;11.45;4.72;;;9.60;63.80;;;;;;6082431;29;20046;-77
2022/12/01 05:48:35;;;;;;;8.07;4.25;;;9.70;64.00;;;;;;6083276;29;20032;-78
2022/12/01 05:51:36;;;;;;;8.50;4.57;;;9.70;63.90;;;;;;6097289;29;20041;-78
2022/12/01 05:54:37;;;;;;;7.00;3.47;;;9.70;64.00;;;;;;6104911;29;20504;-77
2022/12/01 05:57:38;;;;;;;7.07;4.00;;;9.80;64.00;;;;;;6110039;29;20036;-77
2022/12/01 06:00:39;;;;;;;12.20;4.18;;;9.80;64.00;;;;;;6094383;29;20092;-79
2022/12/01 06:03:39;;;;;;;18.30;5.72;;;9.80;63.90;;;;;;6091362;29;20040;-78
2022/12/01 06:06:40;;;;;;;13.32;7.03;;;9.80;64.10;;;;;;6103955;29;20127;-78
2022/12/01 06:09:41;;;;;;;12.60;6.10;;;9.80;64.10;;;;;;6085461;29;20070;-78
2022/12/01 06:12:42;;;;;;;10.65;5.30;;;9.80;64.10;;;;;;6102531;29;20112;-77
2022/12/01 06:15:43;;;;;;;14.05;5.18;;;9.90;64.90;;;;;;6096485;29;20032;-79
2022/12/01 06:18:44;;;;;;;14.45;6.60;;;9.90;64.00;;;;;;6090787;29;20434;-78
2022/12/01 06:21:44;;;;;;;14.60;6.15;;;9.90;64.00;;;;;;6092266;29;20036;-78
2022/12/01 06:24:45;;;;;;;14.10;5.38;;;9.90;63.80;;;;;;6111564;29;20051;-78
2022/12/01 06:27:46;;;;;;;5.75;3.60;;;9.90;63.70;;;;;;6090630;29;20051;-78
2022/12/01 06:30:47;;;;;;;16.55;4.05;;;9.90;64.50;;;;;;6086580;29;20040;-78
2022/12/01 06:33:48;;;;;;;11.13;4.38;;;9.90;63.70;;;;;;6089901;29;20044;-77
2022/12/01 06:36:49;;;;;;;21.42;5.28;;;9.90;63.80;;;;;;6088322;29;20040;-77
2022/12/01 06:39:49;;;;;;;14.35;4.35;;;9.90;63.70;;;;;;6093429;29;20033;-77
2022/12/01 06:42:50;;;;;;;14.05;5.43;;;9.90;63.70;;;;;;6109870;29;20108;-78
2022/12/01 06:45:52;;;;;;;12.00;5.10;;;10.00;63.80;;;;;;6086970;29;20560;-78
2022/12/01 06:48:52;;;;;;;9.07;4.03;;;10.00;63.60;;;;;;6087272;29;20064;-77
2022/12/01 06:51:53;;;;;;;12.27;5.07;;;10.00;63.60;;;;;;6083866;29;20048;-77
2022/12/01 06:54:54;;;;;;;10.07;3.88;;;10.10;63.40;;;;;;6105830;29;20161;-77
2022/12/01 06:57:59;;;;;;;8.52;4.72;;;10.00;63.20;;;;;;6092862;29;20142;-77
2022/12/01 07:01:00;;;;;;;7.07;3.72;;;9.90;63.10;;;;;;6104278;29;20482;-78
2022/12/01 07:04:01;;;;;;;9.63;4.32;;;10.00;63.30;;;;;;6091753;29;20044;-79
2022/12/01 07:07:04;;;;;;;11.35;4.80;;;10.00;63.40;;;;;;6093939;29;20161;-77
2022/12/01 07:10:06;;;;;;;7.18;3.72;;;9.90;63.30;;;;;;6089433;29;20062;-77
2022/12/01 07:13:07;;;;;;;11.25;5.05;;;9.90;63.30;;;;;;6091308;29;20040;-77
2022/12/01 07:16:08;;;;;;;13.88;5.93;;;10.00;63.40;;;;;;6082709;29;20059;-78
2022/12/01 07:19:09;;;;;;;8.40;4.93;;;9.90;63.40;;;;;;6090122;29;20035;-78
2022/12/01 07:22:10;;;;;;;7.50;4.65;;;9.90;63.50;;;;;;6114985;29;20040;-77
2022/12/01 07:25:11;;;;;;;11.07;5.38;;;9.90;63.60;;;;;;6094896;29;20104;-78
2022/12/01 07:28:11;;;;;;;8.25;4.38;;;10.00;63.80;;;;;;6080681;29;20044;-77
2022/12/01 07:31:17;;;;;;;19.75;4.70;;;10.00;63.70;;;;;;6072576;29;20051;-77
2022/12/01 07:34:18;;;;;;;11.80;4.30;;;10.00;63.60;;;;;;6072495;29;20474;-78
2022/12/01 07:37:19;;;;;;;9.55;4.20;;;10.00;63.50;;;;;;6078061;29;20049;-77
2022/12/01 07:40:20;;;;;;;10.10;5.20;;;10.00;63.40;;;;;;6090598;29;20050;-78
2022/12/01 07:43:21;;;;;;;9.52;4.15;;;10.10;63.50;;;;;;6096351;29;20028;-78
2022/12/01 07:46:25;;;;;;;8.90;4.35;;;10.10;63.40;;;;;;6093488;29;20107;-78
2022/12/01 07:49:26;;;;;;;12.93;4.97;;;10.10;63.30;;;;;;6089467;29;20044;-77
2022/12/01 07:52:27;;;;;;;10.50;4.97;;;10.00;63.30;;;;;;6094923;29;20043;-78
2022/12/01 07:55:27;;;;;;;8.75;4.68;;;10.10;63.30;;;;;;6092329;29;20060;-77
2022/12/01 07:58:29;;;;;;;12.10;5.45;;;10.10;63.10;;;;;;6084259;29;20040;-78
2022/12/01 08:01:30;;;;;;;9.38;5.00;;;10.10;63.10;;;;;;6088109;29;20355;-77
2022/12/01 08:04:31;;;;;;;9.07;4.60;;;10.30;63.20;;;;;;6090167;29;20047;-78
2022/12/01 08:07:32;;;;;;;12.85;5.07;;;10.30;63.00;;;;;;6076618;29;20071;-79
2022/12/01 08:10:33;;;;;;;10.82;5.07;;;10.40;62.70;;;;;;6089899;29;20044;-78
2022/12/01 08:13:34;;;;;;;10.63;4.50;;;10.40;62.60;;;;;;6088529;29;20049;-78
2022/12/01 08:16:35;;;;;;;9.50;4.82;;;10.40;62.50;;;;;;6079196;29;20378;-78
2022/12/01 08:19:36;;;;;;;9.07;4.97;;;10.40;62.30;;;;;;6095257;29;20373;-77
2022/12/01 08:22:37;;;;;;;11.43;4.82;;;10.40;62.10;;;;;;6086072;29;20083;-78
2022/12/01 08:25:38;;;;;;;9.43;4.63;;;10.40;61.90;;;;;;6078480;29;20048;-77
2022/12/01 08:28:39;;;;;;;10.23;4.70;;;10.30;62.00;;;;;;6092642;29;20059;-78
2022/12/01 08:31:39;;;;;;;13.38;4.78;;;10.30;62.20;;;;;;6086094;29;20040;-78
2022/12/01 08:34:40;;;;;;;9.88;5.10;;;10.30;62.30;;;;;;6095055;29;20051;-78
2022/12/01 08:37:41;;;;;;;11.52;4.68;;;10.30;62.30;;;;;;6081029;29;20091;-79
2022/12/01 08:40:42;;;;;;;13.30;5.40;;;10.40;62.30;;;;;;6072920;29;20143;-76
2022/12/01 08:43:43;;;;;;;12.93;5.03;;;10.50;62.10;;;;;;6069646;29;20423;-77
2022/12/01 08:46:44;;;;;;;14.55;4.75;;;10.50;61.90;;;;;;6100420;29;20411;-78
2022/12/01 08:49:45;;;;;;;12.90;6.55;;;10.60;61.70;;;;;;6087168;29;20064;-78
2022/12/01 08:52:46;;;;;;;17.30;5.00;;;10.70;61.70;;;;;;6091075;29;20048;-78
2022/12/01 08:55:47;;;;;;;10.52;4.90;;;10.80;61.60;;;;;;6100724;29;20041;-78
2022/12/01 08:58:49;;;;;;;11.98;5.40;;;10.90;61.30;;;;;;6086996;29;20560;-78
2022/12/01 09:01:53;;;;;;;15.25;6.10;;;11.00;60.90;;;;;;6086973;29;20040;-79
2022/12/01 09:04:55;;;;;;;11.70;5.10;;;11.00;60.70;;;;;;6095013;29;20044;-78
2022/12/01 09:08:30;;;;;;;10.93;5.32;;;11.10;60.40;;;;;;6098381;29;20100;-78
2022/12/01 09:11:18;;;;;;;15.10;5.60;;;11.20;60.40;;;;;;6085692;29;20040;-79
2022/12/01 09:14:20;;;;;;;18.83;6.35;;;11.20;60.10;;;;;;6089762;28;20051;-77
2022/12/01 09:17:22;;;;;;;12.38;5.80;;;11.40;59.90;;;;;;6087843;28;20044;-77
2022/12/01 09:20:23;;;;;;;19.50;6.57;;;11.40;59.70;;;;;;6093163;29;20374;-77
2022/12/01 09:23:25;;;;;;;12.07;5.43;;;11.50;59.60;;;;;;6091863;29;20037;-79
2022/12/01 09:26:27;;;;;;;19.67;6.53;;;11.50;59.60;;;;;;6090259;29;20045;-78
2022/12/01 09:29:28;;;;;;;12.73;6.47;;;11.50;59.50;;;;;;6081134;29;20087;-78
2022/12/01 09:32:29;;;;;;;11.70;5.85;;;11.60;59.40;;;;;;6088907;29;20396;-78
2022/12/01 09:35:32;;;;;;;18.85;7.18;;;11.70;59.40;;;;;;6072752;29;20116;-77
2022/12/01 09:38:34;;;;;;;13.55;6.43;;;11.80;59.20;;;;;;6081482;29;20044;-78
2022/12/01 09:41:42;;;;;;;20.05;6.53;;;11.70;59.00;;;;;;6092323;29;20446;-79
2022/12/01 09:44:49;;;;;;;23.05;6.97;;;11.80;58.80;;;;;;6092837;29;20051;-79
2022/12/01 09:47:52;;;;;;;14.45;6.75;;;11.80;58.80;;;;;;6090971;29;20481;-78
2022/12/01 09:50:54;;;;;;;27.45;10.60;;;11.90;58.60;;;;;;6094323;29;20123;-79
2022/12/01 09:53:58;;;;;;;16.83;7.43;;;12.00;58.40;;;;;;6096895;29;20540;-78
2022/12/01 09:56:59;;;;;;;16.20;8.77;;;12.00;58.20;;;;;;6096236;29;20104;-80
2022/12/01 10:00:07;;;;;;;23.17;7.95;;;12.00;57.90;;;;;;6096424;29;20946;-78
2022/12/01 10:03:16;;;;;;;12.10;6.10;;;12.00;57.90;;;;;;6098019;29;20139;-78
2022/12/01 10:06:39;;;;;;;18.48;6.93;;;12.00;58.50;;;;;;6091651;29;20032;-78
2022/12/01 10:09:57;;;;;;;9.73;5.18;;;12.00;57.90;;;;;;6095300;29;20446;-78
2022/12/01 10:12:59;;;;;;;13.95;6.45;;;12.10;57.80;;;;;;6089854;29;20184;-77
2022/12/01 10:16:25;;;;;;;20.33;9.63;;;12.10;57.50;;;;;;6079444;29;20131;-78
2022/12/01 10:20:01;;;;;;;17.88;7.75;;;12.20;57.50;;;;;;6098629;29;20124;-79
2022/12/01 10:23:21;;;;;;;18.92;8.15;;;12.20;57.30;;;;;;6052033;29;20052;-78
2022/12/01 10:26:41;;;;;;;21.77;9.75;;;12.30;57.10;;;;;;6051285;29;20084;-78
2022/12/01 10:30:04;;;;;;;16.20;7.93;;;12.30;57.10;;;;;;6017790;29;20128;-77
2022/12/01 10:33:25;;;;;;;16.02;7.78;;;12.40;57.00;;;;;;6052411;29;20089;-78
2022/12/01 10:36:29;;;;;;;17.40;8.35;;;12.40;56.60;;;;;;6065685;29;20193;-79
2022/12/01 10:39:37;;;;;;;25.92;7.70;;;12.50;56.60;;;;;;6063809;29;20121;-79
2022/12/01 10:42:40;;;;;;;22.65;7.97;;;12.50;56.40;;;;;;6066715;29;20406;-78
2022/12/01 10:45:43;;;;;;;16.70;7.40;;;12.50;56.50;;;;;;6061712;29;20081;-78
2022/12/01 10:48:53;;;;;;;20.58;5.90;;;12.60;56.30;;;;;;6050095;29;20056;-78
2022/12/01 10:51:56;;;;;;;10.05;5.43;;;12.60;55.90;;;;;;6057841;29;20041;-78
2022/12/01 10:54:57;;;;;;;18.98;5.68;;;12.50;55.70;;;;;;6065940;29;20045;-78
2022/12/01 10:58:02;;;;;;;11.90;4.93;;;12.50;55.80;;;;;;6059858;29;20366;-79
2022/12/01 11:01:05;;;;;;;13.43;5.68;;;12.50;55.70;;;;;;6091552;29;20036;-79
2022/12/01 11:04:07;;;;;;;13.70;5.63;;;12.60;55.50;;;;;;6109586;29;20055;-79
2022/12/01 11:07:18;;;;;;;18.10;6.75;;;12.60;55.40;;;;;;6097315;29;20075;-78
2022/12/01 11:10:25;;;;;;;10.10;5.07;;;12.60;55.20;;;;;;6099811;29;20123;-78
2022/12/01 11:13:30;;;;;;;13.40;5.97;;;12.60;54.80;;;;;;6102591;29;20460;-79
2022/12/01 11:16:41;;;;;;;16.30;7.30;;;12.60;54.90;;;;;;6100775;29;20045;-79
2022/12/01 11:19:42;;;;;;;16.00;7.53;;;12.60;54.90;;;;;;6094264;29;20040;-81
2022/12/01 11:22:43;;;;;;;16.30;5.60;;;12.60;54.50;;;;;;6096871;29;20043;-77
2022/12/01 11:26:09;;;;;;;8.82;4.53;;;12.70;54.50;;;;;;6104002;29;20134;-78
2022/12/01 11:29:29;;;;;;;14.57;6.07;;;12.60;54.70;;;;;;6081681;29;20032;-78
2022/12/01 11:32:36;;;;;;;19.75;7.70;;;12.60;54.70;;;;;;6086769;29;20462;-79
2022/12/01 11:35:38;;;;;;;13.50;6.20;;;12.60;54.60;;;;;;6069912;29;20039;-79
2022/12/01 11:38:42;;;;;;;13.02;6.45;;;12.70;54.70;;;;;;6095366;29;20058;-79
2022/12/01 11:41:45;;;;;;;12.98;6.72;;;12.70;54.80;;;;;;6094322;29;20378;-81
2022/12/01 11:45:21;;;;;;;11.10;6.60;;;12.70;54.80;;;;;;6099701;29;20431;-79
2022/12/01 11:48:23;;;;;;;12.30;5.40;;;12.70;55.00;;;;;;6101190;29;20119;-79
2022/12/01 11:51:36;;;;;;;19.67;8.52;;;12.70;54.90;;;;;;6088103;29;20068;-80
2022/12/01 11:54:52;;;;;;;16.23;6.68;;;12.70;55.10;;;;;;6081736;29;20139;-78
2022/12/01 11:57:58;;;;;;;23.52;6.38;;;12.70;55.10;;;;;;6110637;29;20033;-79
2022/12/01 12:00:59;;;;;;;14.13;6.85;;;12.70;55.00;;;;;;6086256;29;20147;-79
2022/12/01 12:04:09;;;;;;;15.95;7.00;;;12.60;55.00;;;;;;6094504;29;20039;-78
2022/12/01 12:07:34;;;;;;;15.65;7.05;;;12.60;55.20;;;;;;6070473;29;20124;-77
2022/12/01 12:10:38;;;;;;;12.80;6.30;;;12.70;55.50;;;;;;6111954;29;20040;-79
2022/12/01 12:13:46;;;;;;;16.85;6.05;;;12.70;55.30;;;;;;6074918;29;20048;-77
2022/12/01 12:17:12;;;;;;;15.27;7.03;;;12.70;55.40;;;;;;6102947;29;20036;-79
2022/12/01 12:20:33;;;;;;;15.95;7.28;;;12.70;55.30;;;;;;6095871;29;20050;-79
2022/12/01 12:23:41;;;;;;;19.80;7.72;;;12.70;55.20;;;;;;6087587;29;20040;-78
2022/12/01 12:27:12;;;;;;;14.90;6.78;;;12.70;55.20;;;;;;6120527;29;20048;-78
2022/12/01 12:30:18;;;;;;;17.63;6.85;;;12.70;55.40;;;;;;6094127;29;20051;-78
2022/12/01 12:33:56;;;;;;;14.27;6.50;;;12.80;55.50;;;;;;6093750;29;20411;-78
2022/12/01 12:37:02;;;;;;;12.57;7.07;;;12.70;55.30;;;;;;6099500;29;20036;-80
2022/12/01 12:40:36;;;;;;;13.00;6.30;;;12.70;55.40;;;;;;6087507;28;20052;-77
2022/12/01 12:44:10;;;;;;;11.35;6.13;;;12.70;55.50;;;;;;6086853;29;20051;-80
2022/12/01 12:47:26;;;;;;;19.58;6.65;;;12.70;55.60;;;;;;6101039;29;20119;-81
2022/12/01 12:51:03;;;;;;;15.30;6.43;;;12.70;55.60;;;;;;6080504;29;20063;-78
2022/12/01 12:54:26;;;;;;;13.18;6.53;;;12.70;55.70;;;;;;6112321;29;20036;-78
2022/12/01 12:57:51;;;;;;;15.35;6.45;;;12.70;55.60;;;;;;6083495;29;20044;-79
2022/12/01 13:01:01;;;;;;;17.70;7.25;;;12.70;55.70;;;;;;6081669;29;20096;-79
2022/12/01 13:04:18;;;;;;;12.07;5.75;;;12.70;55.70;;;;;;6108760;29;20036;-78
2022/12/01 13:07:41;;;;;;;27.30;6.70;;;12.70;55.70;;;;;;6095298;29;20048;-79
2022/12/01 13:11:09;;;;;;;22.25;6.65;;;12.70;55.60;;;;;;6056647;29;20047;-79
2022/12/01 13:14:47;;;;;;;14.75;7.35;;;12.70;55.70;;;;;;6033899;29;20045;-80
2022/12/01 13:17:50;;;;;;;20.15;8.43;;;12.70;55.80;;;;;;6023250;29;20049;-78
2022/12/01 13:20:55;;;;;;;15.80;7.93;;;12.70;55.80;;;;;;6018815;29;20515;-79
2022/12/01 13:23:56;;;;;;;29.25;11.30;;;12.70;55.70;;;;;;6024696;29;20048;-78
2022/12/01 13:27:01;;;;;;;16.05;7.65;;;12.60;55.70;;;;;;5988128;29;20037;-78
2022/12/01 13:30:04;;;;;;;17.85;7.35;;;12.50;55.80;;;;;;6024760;29;20050;-78
2022/12/01 13:33:06;;;;;;;15.50;6.85;;;12.50;55.90;;;;;;6022473;29;20041;-77
2022/12/01 13:36:10;;;;;;;18.83;7.15;;;12.50;55.90;;;;;;6023516;29;20128;-78
2022/12/01 13:39:18;;;;;;;15.65;7.90;;;12.50;55.90;;;;;;5998329;29;20042;-79
2022/12/01 13:42:23;;;;;;;19.67;8.15;;;12.50;55.90;;;;;;6023645;29;20057;-79
2022/12/01 13:45:28;;;;;;;23.33;7.85;;;12.50;56.50;;;;;;6031491;29;20057;-78
2022/12/01 13:48:49;;;;;;;17.55;7.93;;;12.50;55.90;;;;;;6023160;29;20049;-78
2022/12/01 13:52:18;;;;;;;15.68;7.05;;;12.50;55.90;;;;;;6001243;29;20075;-79
2022/12/01 13:55:24;;;;;;;22.60;7.27;;;12.50;55.90;;;;;;6072293;29;20116;-78
2022/12/01 13:58:49;;;;;;;14.80;7.75;;;12.60;55.90;;;;;;6079671;29;20039;-79
2022/12/01 14:02:17;;;;;;;14.38;7.28;;;12.60;55.80;;;;;;6086929;28;20048;-79
2022/12/01 14:05:23;;;;;;;22.10;8.23;;;12.60;55.80;;;;;;6077947;29;20033;-79
2022/12/01 14:08:31;;;;;;;15.30;6.90;;;12.50;55.80;;;;;;6095035;29;20055;-79
2022/12/01 14:11:33;;;;;;;15.70;7.47;;;12.50;55.90;;;;;;6092494;29;20051;-79
2022/12/01 14:14:52;;;;;;;17.80;7.93;;;12.50;55.90;;;;;;6106978;29;20025;-80
2022/12/01 14:18:05;;;;;;;14.88;6.90;;;12.50;55.90;;;;;;6082182;29;20036;-78
2022/12/01 14:21:09;;;;;;;16.67;7.13;;;12.40;55.90;;;;;;6087837;29;20043;-78
2022/12/01 14:24:39;;;;;;;13.82;6.80;;;12.40;56.00;;;;;;6085280;29;20055;-80
2022/12/01 14:27:42;;;;;;;15.93;6.50;;;12.30;56.10;;;;;;6097416;29;20070;-79
2022/12/01 14:30:46;;;;;;;21.15;8.00;;;12.30;56.10;;;;;;6083246;29;20033;-80
2022/12/01 14:33:53;;;;;;;17.73;7.97;;;12.30;56.10;;;;;;6091154;29;20071;-77
2022/12/01 14:37:23;;;;;;;16.73;7.77;;;12.20;56.10;;;;;;6090500;29;20028;-78
2022/12/01 14:40:28;;;;;;;20.40;7.03;;;12.30;56.20;;;;;;6053114;29;20056;-80
2022/12/01 14:47:11;;;;;;;15.10;7.20;;;12.30;56.00;;;;;;6059378;29;20387;-79
2022/12/01 14:50:21;;;;;;;27.85;8.07;;;12.30;56.00;;;;;;6064790;29;20049;-79
2022/12/01 14:53:29;;;;;;;21.08;7.60;;;12.30;55.90;;;;;;6043848;29;20347;-78
2022/12/01 14:56:32;;;;;;;18.48;7.13;;;12.30;56.00;;;;;;6050893;29;20079;-79
2022/12/01 14:59:34;;;;;;;16.20;6.90;;;12.30;55.90;;;;;;6049598;29;20052;-78
2022/12/01 15:02:45;;;;;;;15.13;7.10;;;12.30;55.80;;;;;;6046397;29;20469;-78
2022/12/01 15:05:47;;;;;;;18.90;7.50;;;12.30;55.80;;;;;;6061920;29;20052;-79
2022/12/01 15:09:08;;;;;;;17.20;7.32;;;12.30;55.70;;;;;;6047544;29;20036;-79
2022/12/01 15:12:26;;;;;;;16.65;6.85;;;12.30;55.80;;;;;;6054126;29;20041;-78
2022/12/01 15:15:27;;;;;;;19.85;7.10;;;12.30;55.80;;;;;;6049559;29;20124;-78
2022/12/01 15:18:31;;;;;;;12.85;6.43;;;12.30;55.70;;;;;;6087888;29;20488;-78
2022/12/01 15:21:32;;;;;;;17.20;6.90;;;12.30;55.70;;;;;;6105912;29;20032;-80
2022/12/01 15:24:35;;;;;;;13.10;6.32;;;12.30;55.70;;;;;;6088510;29;20051;-79
2022/12/01 15:27:36;;;;;;;19.17;6.80;;;12.30;55.60;;;;;;6086152;29;20123;-78
2022/12/01 15:30:42;;;;;;;15.90;6.80;;;12.30;55.60;;;;;;6077897;29;20037;-78
2022/12/01 15:33:49;;;;;;;15.43;6.53;;;12.30;55.60;;;;;;6073790;29;20052;-79
2022/12/01 15:36:52;;;;;;;20.13;6.40;;;12.30;55.50;;;;;;6082715;29;20561;-78
2022/12/01 15:40:06;;;;;;;20.65;7.97;;;12.30;55.50;;;;;;6082491;29;20040;-79
2022/12/01 15:43:36;;;;;;;15.75;7.05;;;12.30;55.50;;;;;;6091304;29;20044;-79
2022/12/01 15:46:37;;;;;;;16.63;6.97;;;12.30;55.50;;;;;;6059798;29;20131;-79
2022/12/01 15:49:48;;;;;;;12.98;6.00;;;12.30;55.40;;;;;;6089119;29;20382;-78
2022/12/01 15:52:49;;;;;;;11.52;5.78;;;12.30;55.50;;;;;;6104609;29;20477;-78
2022/12/01 15:55:51;;;;;;;14.48;6.20;;;12.30;55.50;;;;;;6088543;29;20103;-79
2022/12/01 15:59:02;;;;;;;13.75;6.20;;;12.30;55.50;;;;;;6086139;29;20047;-78
2022/12/01 16:02:22;;;;;;;13.48;5.88;;;12.30;55.50;;;;;;6090381;29;20058;-79
2022/12/01 16:05:29;;;;;;;12.13;4.85;;;12.20;55.70;;;;;;6086178;28;20040;-81
2022/12/01 16:08:30;;;;;;;14.70;6.65;;;12.20;55.50;;;;;;6105081;29;20110;-80
2022/12/01 16:11:31;;;;;;;17.75;6.53;;;12.20;55.50;;;;;;6094021;29;20119;-78